Time;durP1;ratioP1;P1;durP2;ratioP2;P2;SDS_P1;SDS_P2;PMS_P1;PMS_P2;Temp;Humidity;BMP_temperature;BMP_pressure;BME280_temperature;BME280_humidity;BME280_pressure;Samples;Min_cycle;Max_cycle;Signal;HPM_P1;HPM_P2
2022/09/06 00:00:28;;;;;;;13.80;7.40;;;15.30;54.50;;;;;;4957711;28;46333;-66
2022/09/06 00:02:54;;;;;;;14.40;7.73;;;15.30;53.50;;;;;;4957971;28;46781;-66
2022/09/06 00:05:20;;;;;;;9.40;6.37;;;15.30;54.40;;;;;;4954280;28;46381;-66
2022/09/06 00:07:45;;;;;;;10.83;6.63;;;15.30;53.60;;;;;;4956382;28;46477;-66
2022/09/06 00:10:12;;;;;;;18.23;7.30;;;15.30;54.50;;;;;;4957062;28;46647;-66
2022/09/06 00:12:38;;;;;;;9.83;7.17;;;15.30;54.00;;;;;;4955824;28;46318;-65
2022/09/06 00:15:05;;;;;;;7.73;6.23;;;15.30;55.00;;;;;;4956682;28;46476;-66
2022/09/06 00:17:31;;;;;;;23.03;8.00;;;15.30;55.00;;;;;;4955880;28;46613;-66
2022/09/06 00:19:57;;;;;;;48.97;6.63;;;15.20;55.20;;;;;;4957140;28;46466;-66
2022/09/06 00:22:22;;;;;;;34.93;6.13;;;15.10;55.70;;;;;;4959123;28;46768;-66
2022/09/06 00:24:48;;;;;;;36.97;6.57;;;15.00;55.20;;;;;;4956999;28;46420;-66
2022/09/06 00:27:14;;;;;;;34.43;6.57;;;14.90;56.20;;;;;;4955070;28;46362;-65
2022/09/06 00:29:39;;;;;;;18.60;5.47;;;14.90;56.10;;;;;;4953696;28;46164;-66
2022/09/06 00:32:05;;;;;;;34.77;6.40;;;14.90;56.10;;;;;;4956369;28;47192;-66
2022/09/06 00:34:31;;;;;;;17.23;6.37;;;14.90;55.10;;;;;;4956526;28;46456;-66
2022/09/06 00:36:57;;;;;;;19.40;5.30;;;14.90;56.20;;;;;;4952762;28;46480;-66
2022/09/06 00:39:22;;;;;;;9.60;4.80;;;14.90;57.30;;;;;;4954551;28;46435;-66
2022/09/06 00:41:48;;;;;;;8.80;5.37;;;14.80;56.10;;;;;;4961228;28;46160;-66
2022/09/06 00:44:14;;;;;;;10.60;5.73;;;14.70;54.90;;;;;;4968072;28;45820;-66
2022/09/06 00:46:44;;;;;;;16.90;6.00;;;14.70;56.10;;;;;;4958108;28;46502;-65
2022/09/06 00:49:27;;;;;;;24.70;7.20;;;14.70;56.00;;;;;;4955432;28;46378;-66
2022/09/06 00:51:59;;;;;;;43.60;7.50;;;14.70;56.00;;;;;;4953616;28;46739;-66
2022/09/06 00:54:25;;;;;;;21.67;5.93;;;14.60;54.80;;;;;;4956566;28;46473;-66
2022/09/06 00:56:51;;;;;;;29.50;6.87;;;14.60;55.90;;;;;;4953893;28;46344;-66
2022/09/06 00:59:18;;;;;;;27.43;6.73;;;14.50;55.80;;;;;;4951110;28;46530;-66
2022/09/06 01:01:43;;;;;;;15.33;6.50;;;14.50;55.80;;;;;;4965230;28;47487;-66
2022/09/06 01:04:09;;;;;;;11.10;6.00;;;14.50;54.80;;;;;;4955174;28;46029;-65
2022/09/06 01:06:58;;;;;;;17.83;6.90;;;14.40;55.70;;;;;;4959380;28;46481;-65
2022/09/06 01:09:37;;;;;;;11.93;6.60;;;14.40;56.30;;;;;;4950262;28;45837;-66
2022/09/06 01:12:09;;;;;;;10.30;5.93;;;14.30;56.50;;;;;;4965870;28;47913;-65
2022/09/06 01:15:32;;;;;;;11.57;6.20;;;14.30;55.50;;;;;;4953987;28;46534;-66
2022/09/06 01:18:22;;;;;;;10.80;6.50;;;13.70;55.90;;;;;;4971094;28;46391;-66
2022/09/06 01:21:13;;;;;;;8.17;6.33;;;14.30;56.10;;;;;;4974131;28;46484;-65
2022/09/06 01:24:03;;;;;;;12.80;6.93;;;14.30;55.10;;;;;;4951758;28;46405;-65
2022/09/06 01:26:47;;;;;;;14.50;7.27;;;14.30;56.10;;;;;;4955851;28;46372;-66
2022/09/06 01:29:36;;;;;;;9.87;6.47;;;14.40;56.10;;;;;;4956788;28;46399;-66
2022/09/06 01:32:27;;;;;;;8.50;5.23;;;14.30;56.30;;;;;;4954820;28;46417;-65
2022/09/06 01:35:09;;;;;;;8.73;5.87;;;14.30;55.50;;;;;;4955264;28;46578;-66
2022/09/06 01:37:35;;;;;;;11.63;6.60;;;14.30;56.40;;;;;;4954481;28;46453;-66
2022/09/06 01:40:00;;;;;;;8.83;5.60;;;14.30;56.40;;;;;;4956024;28;46472;-66
2022/09/06 01:42:29;;;;;;;9.70;6.47;;;14.20;55.50;;;;;;4953608;28;46655;-66
2022/09/06 01:45:01;;;;;;;9.60;6.10;;;14.20;56.60;;;;;;4952736;28;46375;-66
2022/09/06 01:47:41;;;;;;;11.33;5.83;;;14.20;56.90;;;;;;4953506;28;46163;-66
2022/09/06 01:50:18;;;;;;;8.93;5.70;;;14.10;57.00;;;;;;4956050;28;46295;-66
2022/09/06 01:53:08;;;;;;;26.17;6.50;;;14.10;56.30;;;;;;4951834;28;46480;-66
2022/09/06 01:55:50;;;;;;;9.43;5.83;;;14.10;57.20;;;;;;4951758;28;46359;-66
2022/09/06 01:58:45;;;;;;;12.00;6.67;;;14.10;57.20;;;;;;4956229;28;46437;-66
2022/09/06 02:01:24;;;;;;;9.97;5.27;;;14.10;57.40;;;;;;4954602;28;46582;-66
2022/09/06 02:04:16;;;;;;;9.80;5.53;;;13.90;56.20;;;;;;4956458;28;46555;-66
2022/09/06 02:06:46;;;;;;;8.03;6.23;;;13.80;57.20;;;;;;4952479;28;47767;-66
2022/09/06 02:09:19;;;;;;;10.63;5.70;;;13.80;57.30;;;;;;4956332;28;46338;-66
2022/09/06 02:12:11;;;;;;;9.50;6.23;;;13.80;57.70;;;;;;4956882;28;45788;-65
2022/09/06 02:14:55;;;;;;;9.93;5.47;;;13.70;57.00;;;;;;4958246;28;46642;-66
2022/09/06 02:17:26;;;;;;;13.30;6.70;;;13.70;57.80;;;;;;4955664;28;46915;-66
2022/09/06 02:20:02;;;;;;;10.23;5.87;;;13.70;57.80;;;;;;4954891;28;46419;-66
2022/09/06 02:22:33;;;;;;;8.83;6.20;;;13.70;56.70;;;;;;4956136;28;45820;-66
2022/09/06 02:25:00;;;;;;;13.30;6.90;;;13.70;57.90;;;;;;4959231;28;46470;-66
2022/09/06 02:27:26;;;;;;;16.87;5.93;;;13.70;57.80;;;;;;4957618;28;46368;-65
2022/09/06 02:29:52;;;;;;;12.33;6.13;;;13.70;57.70;;;;;;4953695;28;46502;-66
2022/09/06 02:32:22;;;;;;;9.87;6.67;;;13.70;57.90;;;;;;4957711;28;46424;-65
2022/09/06 02:34:54;;;;;;;12.20;6.40;;;13.70;56.90;;;;;;4955227;28;46257;-66
2022/09/06 02:37:22;;;;;;;8.57;5.60;;;13.70;58.10;;;;;;4952693;28;46470;-66
2022/09/06 02:39:48;;;;;;;9.23;6.07;;;13.70;58.00;;;;;;4954864;28;46289;-66
2022/09/06 02:42:16;;;;;;;9.70;6.60;;;13.80;57.90;;;;;;4953473;28;46618;-66
2022/09/06 02:44:42;;;;;;;9.57;5.87;;;13.80;57.00;;;;;;4952732;28;46573;-66
2022/09/06 02:47:08;;;;;;;8.37;6.10;;;13.70;57.90;;;;;;4953636;28;47499;-66
2022/09/06 02:49:33;;;;;;;10.70;5.80;;;13.70;58.10;;;;;;4955125;28;46377;-66
2022/09/06 02:51:59;;;;;;;9.57;6.30;;;13.60;58.30;;;;;;4956736;28;46372;-66
2022/09/06 02:54:25;;;;;;;9.00;6.40;;;13.60;57.50;;;;;;4956842;28;46578;-66
2022/09/06 02:56:50;;;;;;;10.90;6.93;;;13.60;58.50;;;;;;4955629;28;46791;-65
2022/09/06 02:59:16;;;;;;;8.13;6.47;;;13.70;58.60;;;;;;4950344;28;46688;-66
2022/09/06 03:01:41;;;;;;;10.60;6.63;;;13.70;58.50;;;;;;4956330;28;46325;-66
2022/09/06 03:04:07;;;;;;;9.30;6.40;;;13.70;57.70;;;;;;4952125;28;46357;-66
2022/09/06 03:06:33;;;;;;;9.37;5.90;;;13.70;58.70;;;;;;4955323;28;47248;-65
2022/09/06 03:08:59;;;;;;;9.50;5.93;;;13.70;58.70;;;;;;4950933;28;46521;-66
2022/09/06 03:11:25;;;;;;;11.10;6.40;;;13.70;58.60;;;;;;4956465;28;46285;-66
2022/09/06 03:13:51;;;;;;;11.90;7.07;;;13.70;57.80;;;;;;4953006;28;46375;-65
2022/09/06 03:16:18;;;;;;;10.33;7.50;;;13.70;58.80;;;;;;4954109;28;46700;-65
2022/09/06 03:18:44;;;;;;;12.90;7.37;;;13.70;60.00;;;;;;4952653;28;46581;-65
2022/09/06 03:21:09;;;;;;;9.37;7.00;;;13.70;58.80;;;;;;4951542;28;46380;-65
2022/09/06 03:23:38;;;;;;;11.80;7.40;;;13.80;58.00;;;;;;4952036;28;46606;-65
2022/09/06 03:26:04;;;;;;;11.23;7.03;;;13.80;58.90;;;;;;4954772;28;46329;-66
2022/09/06 03:28:30;;;;;;;11.60;6.80;;;13.80;58.80;;;;;;4949190;28;46415;-65
2022/09/06 03:30:56;;;;;;;10.00;6.90;;;13.80;58.80;;;;;;4962002;28;46275;-65
2022/09/06 03:33:22;;;;;;;11.90;5.93;;;13.80;58.00;;;;;;4966397;28;46340;-66
2022/09/06 03:35:56;;;;;;;11.80;7.00;;;13.80;58.90;;;;;;4951198;28;47539;-66
2022/09/06 03:38:23;;;;;;;10.53;6.83;;;13.80;58.90;;;;;;4956077;28;46441;-66
2022/09/06 03:40:51;;;;;;;12.20;6.40;;;13.80;58.90;;;;;;4955317;28;45853;-66
2022/09/06 03:43:18;;;;;;;13.13;6.83;;;13.90;57.60;;;;;;4948341;28;46621;-65
2022/09/06 03:45:46;;;;;;;11.47;6.53;;;13.90;58.50;;;;;;4948077;28;47014;-67
2022/09/06 03:48:11;;;;;;;11.63;7.40;;;14.00;58.50;;;;;;4953121;28;46354;-66
2022/09/06 03:50:37;;;;;;;11.87;6.53;;;14.00;58.40;;;;;;4952013;28;46741;-66
2022/09/06 03:53:03;;;;;;;11.60;5.80;;;13.90;57.60;;;;;;4959048;28;46000;-65
2022/09/06 03:55:28;;;;;;;8.50;6.47;;;13.90;58.70;;;;;;4955735;28;46379;-66
2022/09/06 03:57:54;;;;;;;11.60;6.83;;;13.90;58.70;;;;;;4949122;28;46398;-68
2022/09/06 04:00:19;;;;;;;8.77;6.30;;;13.80;58.70;;;;;;4956648;28;46591;-68
2022/09/06 04:02:45;;;;;;;12.70;6.30;;;13.80;58.10;;;;;;4958328;28;46455;-66
2022/09/06 04:05:12;;;;;;;10.83;6.00;;;13.80;58.30;;;;;;4958593;28;47409;-67
2022/09/06 04:07:38;;;;;;;16.70;6.50;;;13.80;59.20;;;;;;4956601;28;46487;-66
2022/09/06 04:10:04;;;;;;;13.30;6.73;;;13.70;59.30;;;;;;4958350;28;46462;-68
2022/09/06 04:12:29;;;;;;;9.63;6.13;;;13.60;58.80;;;;;;4958912;28;46478;-68
2022/09/06 04:14:55;;;;;;;10.13;6.10;;;13.60;59.80;;;;;;4958044;28;46400;-67
2022/09/06 04:17:20;;;;;;;9.77;5.93;;;13.50;59.80;;;;;;4956897;28;45817;-66
2022/09/06 04:19:46;;;;;;;12.40;6.43;;;13.50;59.80;;;;;;4957802;28;46434;-65
2022/09/06 04:22:12;;;;;;;9.20;6.57;;;13.50;59.70;;;;;;4958021;28;46608;-65
2022/09/06 04:24:37;;;;;;;11.40;6.87;;;13.50;58.70;;;;;;4953992;28;47749;-67
2022/09/06 04:27:03;;;;;;;10.80;6.73;;;13.50;59.70;;;;;;4956618;28;46304;-67
2022/09/06 04:29:29;;;;;;;11.80;6.50;;;13.60;59.60;;;;;;4956585;28;45876;-65
2022/09/06 04:31:54;;;;;;;8.53;6.20;;;13.70;59.40;;;;;;4959145;28;46481;-65
2022/09/06 04:34:20;;;;;;;8.50;6.10;;;13.70;58.50;;;;;;4958841;28;46458;-66
2022/09/06 04:36:45;;;;;;;20.33;6.80;;;13.70;59.30;;;;;;4960707;28;46455;-66
2022/09/06 04:39:11;;;;;;;9.13;5.77;;;13.70;59.30;;;;;;4961298;28;46347;-67
2022/09/06 04:41:37;;;;;;;8.40;5.90;;;13.70;59.40;;;;;;4959623;28;46281;-65
2022/09/06 04:44:02;;;;;;;7.90;5.97;;;13.70;58.50;;;;;;4954691;28;46468;-65
2022/09/06 04:46:29;;;;;;;13.73;6.63;;;13.60;59.50;;;;;;4957219;28;46868;-67
2022/09/06 04:48:56;;;;;;;7.40;5.60;;;13.60;59.50;;;;;;4955549;28;46769;-66
2022/09/06 04:51:23;;;;;;;15.03;5.57;;;13.70;58.60;;;;;;4955138;28;46313;-68
2022/09/06 04:53:49;;;;;;;12.40;5.60;;;13.80;58.70;;;;;;4956232;28;47247;-67
2022/09/06 04:56:17;;;;;;;8.27;5.80;;;13.80;59.50;;;;;;4955585;28;45802;-67
2022/09/06 04:58:45;;;;;;;17.50;6.50;;;14.10;59.20;;;;;;4954681;28;45938;-67
2022/09/06 05:01:11;;;;;;;6.93;5.53;;;14.30;57.50;;;;;;4956084;28;46500;-67
2022/09/06 05:03:36;;;;;;;14.10;5.47;;;14.40;57.20;;;;;;4956846;28;46290;-68
2022/09/06 05:06:04;;;;;;;13.50;6.10;;;14.50;57.90;;;;;;4952397;28;46515;-67
2022/09/06 05:08:30;;;;;;;9.67;6.47;;;14.60;57.70;;;;;;4953206;28;46284;-68
2022/09/06 05:10:55;;;;;;;11.47;6.80;;;14.70;57.60;;;;;;4956409;28;46526;-68
2022/09/06 05:13:21;;;;;;;9.13;5.70;;;14.80;56.60;;;;;;4954622;28;46915;-67
2022/09/06 05:15:46;;;;;;;9.23;6.07;;;14.80;57.70;;;;;;4953826;28;46411;-67
2022/09/06 05:18:12;;;;;;;9.57;5.50;;;14.80;57.60;;;;;;4955702;28;46433;-67
2022/09/06 05:20:37;;;;;;;9.30;6.27;;;14.80;57.80;;;;;;4956263;28;46451;-68
2022/09/06 05:23:03;;;;;;;11.20;6.40;;;14.80;57.10;;;;;;4954657;28;46464;-68
2022/09/06 05:25:29;;;;;;;9.23;6.10;;;14.90;58.10;;;;;;4963377;28;46400;-67
2022/09/06 05:27:54;;;;;;;8.77;5.97;;;15.00;58.00;;;;;;4956000;28;46395;-67
2022/09/06 05:30:20;;;;;;;9.97;6.00;;;15.20;58.00;;;;;;4954466;28;46361;-67
2022/09/06 05:32:46;;;;;;;9.60;5.30;;;16.50;56.60;;;;;;4952770;28;46317;-66
2022/09/06 05:35:11;;;;;;;7.13;5.30;;;16.60;57.80;;;;;;4951339;28;46395;-68
2022/09/06 05:37:37;;;;;;;10.70;5.37;;;17.40;57.40;;;;;;4953309;28;46550;-68
2022/09/06 05:40:03;;;;;;;8.33;4.33;;;18.10;55.80;;;;;;4952068;28;46381;-68
2022/09/06 05:42:29;;;;;;;13.73;4.60;;;;;;;;;;4953700;28;47157;-67
2022/09/06 05:44:54;;;;;;;7.50;4.30;;;18.70;52.00;;;;;;4952994;28;46351;-68
2022/09/06 05:47:20;;;;;;;6.10;4.47;;;18.70;52.20;;;;;;4954200;28;46380;-68
2022/09/06 05:49:46;;;;;;;12.73;5.13;;;18.60;52.20;;;;;;4955470;28;46503;-67
2022/09/06 05:52:11;;;;;;;7.00;4.30;;;17.90;52.50;;;;;;4956429;28;46436;-68
2022/09/06 05:54:37;;;;;;;6.83;4.87;;;17.50;53.40;;;;;;4951531;28;46413;-67
2022/09/06 05:57:03;;;;;;;15.73;5.57;;;17.20;56.30;;;;;;4952751;28;45844;-67
2022/09/06 05:59:28;;;;;;;9.67;5.63;;;17.20;54.90;;;;;;4954145;28;46375;-67
2022/09/06 06:01:54;;;;;;;7.30;4.50;;;17.40;54.60;;;;;;4951109;28;46369;-67
2022/09/06 06:04:21;;;;;;;6.47;4.37;;;17.40;53.10;;;;;;4952517;28;46226;-68
2022/09/06 06:06:47;;;;;;;10.70;4.47;;;17.50;53.70;;;;;;4950947;28;46458;-68
2022/09/06 06:09:13;;;;;;;9.70;5.00;;;17.70;53.20;;;;;;4956664;28;46532;-67
2022/09/06 06:11:40;;;;;;;7.50;5.63;;;17.70;52.90;;;;;;4956945;28;46442;-67
2022/09/06 06:14:06;;;;;;;9.43;4.87;;;17.90;51.70;;;;;;4953076;28;46435;-67
2022/09/06 06:16:32;;;;;;;8.27;4.83;;;17.90;52.60;;;;;;4956501;28;46493;-68
2022/09/06 06:18:57;;;;;;;8.90;5.10;;;18.00;52.20;;;;;;4954116;28;46578;-68
2022/09/06 06:21:25;;;;;;;9.30;5.13;;;18.10;52.00;;;;;;4962602;28;47257;-68
2022/09/06 06:23:58;;;;;;;7.20;5.50;;;18.10;50.80;;;;;;4952616;28;46282;-68
2022/09/06 06:26:25;;;;;;;9.63;5.60;;;18.10;51.80;;;;;;4952948;28;46457;-68
2022/09/06 06:28:51;;;;;;;7.37;4.80;;;18.20;51.80;;;;;;4953471;28;46341;-67
2022/09/06 06:31:18;;;;;;;8.03;4.50;;;18.40;51.60;;;;;;4953028;28;46963;-68
2022/09/06 06:33:43;;;;;;;8.23;4.60;;;18.40;50.50;;;;;;4956451;28;46704;-67
2022/09/06 06:36:14;;;;;;;7.60;5.10;;;18.40;51.40;;;;;;4952339;28;46553;-67
2022/09/06 06:38:42;;;;;;;9.00;4.70;;;18.40;51.50;;;;;;4953741;28;46358;-68
2022/09/06 06:41:13;;;;;;;9.47;5.47;;;18.40;51.80;;;;;;4949913;28;47288;-67
2022/09/06 06:43:39;;;;;;;11.03;5.20;;;18.10;51.60;;;;;;4953661;28;46467;-67
2022/09/06 06:46:16;;;;;;;11.30;5.53;;;18.00;52.70;;;;;;4951707;28;46428;-67
2022/09/06 06:48:43;;;;;;;7.67;4.80;;;17.90;53.30;;;;;;4954540;28;46571;-66
2022/09/06 06:51:11;;;;;;;6.97;4.80;;;17.80;53.70;;;;;;4953241;28;46488;-67
2022/09/06 06:53:37;;;;;;;7.43;4.63;;;17.80;53.20;;;;;;4952402;28;45887;-67
2022/09/06 06:56:17;;;;;;;8.37;4.53;;;17.80;54.00;;;;;;4954575;28;46618;-67
2022/09/06 06:58:43;;;;;;;10.47;5.20;;;17.90;54.00;;;;;;4954455;28;46873;-67
2022/09/06 07:01:09;;;;;;;8.90;4.87;;;17.90;53.80;;;;;;4967484;28;47366;-67
2022/09/06 07:03:35;;;;;;;11.17;5.20;;;17.90;53.10;;;;;;4954447;28;46397;-66
2022/09/06 07:06:02;;;;;;;9.90;5.00;;;17.90;54.20;;;;;;4953623;28;45800;-68
2022/09/06 07:08:28;;;;;;;11.40;5.43;;;17.90;54.80;;;;;;4956140;28;46414;-67
2022/09/06 07:10:53;;;;;;;7.80;5.60;;;17.90;54.60;;;;;;4953461;28;46436;-68
2022/09/06 07:13:19;;;;;;;8.70;4.57;;;18.20;53.10;;;;;;4956282;28;46305;-68
2022/09/06 07:15:44;;;;;;;7.90;4.57;;;18.30;53.80;;;;;;4955274;28;46533;-67
2022/09/06 07:18:10;;;;;;;8.20;4.90;;;18.50;53.30;;;;;;4954808;28;46450;-67
2022/09/06 07:20:36;;;;;;;8.03;4.60;;;18.60;53.00;;;;;;4955195;28;48054;-67
2022/09/06 07:23:06;;;;;;;8.20;4.60;;;18.90;51.40;;;;;;4951477;28;46548;-67
2022/09/06 07:25:32;;;;;;;7.50;4.57;;;18.90;52.50;;;;;;4954003;28;46456;-67
2022/09/06 07:28:05;;;;;;;17.23;5.60;;;19.10;52.10;;;;;;4953001;28;46437;-67
2022/09/06 07:30:33;;;;;;;10.03;4.77;;;19.30;51.80;;;;;;4955886;28;46659;-67
2022/09/06 07:32:59;;;;;;;16.80;6.00;;;19.90;49.50;;;;;;4952811;28;46329;-67
2022/09/06 07:35:26;;;;;;;15.13;5.57;;;19.90;50.50;;;;;;4952179;28;46357;-67
2022/09/06 07:37:53;;;;;;;12.67;5.53;;;20.20;49.90;;;;;;4955787;28;46290;-67
2022/09/06 07:40:19;;;;;;;6.73;3.90;;;20.60;49.20;;;;;;4953396;28;46372;-66
2022/09/06 07:42:44;;;;;;;15.23;5.97;;;21.60;47.10;;;;;;4953262;28;46424;-67
2022/09/06 07:45:10;;;;;;;7.07;4.20;;;21.60;47.60;;;;;;4952795;28;45851;-67
2022/09/06 07:47:36;;;;;;;12.03;3.97;;;22.10;46.40;;;;;;4952725;28;46624;-68
2022/09/06 07:50:03;;;;;;;9.17;3.73;;;22.50;45.30;;;;;;4952998;28;46426;-68
2022/09/06 07:52:31;;;;;;;6.50;3.63;;;22.70;44.60;;;;;;4953094;28;46427;-68
2022/09/06 07:54:57;;;;;;;6.83;3.63;;;22.70;43.20;;;;;;4952609;28;46467;-67
2022/09/06 07:57:23;;;;;;;9.30;3.30;;;22.70;44.50;;;;;;4955958;28;46495;-67
2022/09/06 07:59:48;;;;;;;9.80;3.33;;;22.60;45.70;;;;;;4950350;28;46404;-67
2022/09/06 08:02:16;;;;;;;7.40;3.27;;;22.60;44.60;;;;;;4951619;28;46463;-67
2022/09/06 08:04:42;;;;;;;8.23;3.93;;;22.50;43.50;;;;;;4952734;28;46437;-67
2022/09/06 08:07:08;;;;;;;7.43;3.37;;;22.50;44.70;;;;;;4952012;28;46606;-67
2022/09/06 08:09:34;;;;;;;6.10;3.37;;;22.40;44.60;;;;;;4953703;28;46447;-67
2022/09/06 08:12:05;;;;;;;12.67;3.43;;;22.30;44.70;;;;;;4957509;28;45858;-67
2022/09/06 08:14:34;;;;;;;10.77;3.53;;;22.30;43.50;;;;;;4955531;28;46566;-67
2022/09/06 08:17:00;;;;;;;5.97;3.90;;;22.40;44.40;;;;;;4969910;28;46423;-67
2022/09/06 08:19:25;;;;;;;7.20;3.40;;;22.40;44.00;;;;;;4956291;28;46615;-67
2022/09/06 08:21:54;;;;;;;7.17;2.97;;;22.60;43.90;;;;;;4959517;28;46281;-67
2022/09/06 08:24:20;;;;;;;5.20;2.63;;;22.60;42.20;;;;;;4958078;28;46376;-67
2022/09/06 08:26:45;;;;;;;12.23;3.30;;;22.70;42.80;;;;;;4953507;28;46406;-67
2022/09/06 08:29:12;;;;;;;5.03;2.50;;;22.80;42.50;;;;;;4956522;28;46609;-67
2022/09/06 08:31:42;;;;;;;9.80;2.83;;;22.90;42.20;;;;;;4957355;28;46786;-67
2022/09/06 08:34:08;;;;;;;6.20;2.63;;;23.10;40.50;;;;;;4950478;28;46314;-67
2022/09/06 08:36:34;;;;;;;5.93;2.83;;;23.20;41.50;;;;;;4955782;28;46685;-67
2022/09/06 08:39:04;;;;;;;6.63;2.97;;;23.50;41.00;;;;;;4953686;28;46391;-67
2022/09/06 08:41:45;;;;;;;12.67;2.57;;;23.80;40.60;;;;;;4954695;28;46417;-67
2022/09/06 08:44:17;;;;;;;9.30;3.10;;;24.00;39.20;;;;;;4956228;28;45813;-67
2022/09/06 08:47:11;;;;;;;9.60;2.90;;;23.90;40.20;;;;;;4954327;28;46541;-67
2022/09/06 08:49:47;;;;;;;7.90;3.10;;;23.90;39.90;;;;;;4955880;28;46104;-67
2022/09/06 08:52:31;;;;;;;4.10;2.40;;;23.80;38.80;;;;;;4953399;28;46405;-66
2022/09/06 08:55:22;;;;;;;7.33;2.33;;;23.80;40.00;;;;;;4956139;28;46418;-67
2022/09/06 08:57:57;;;;;;;10.50;2.03;;;24.00;40.40;;;;;;4950266;28;46354;-67
2022/09/06 09:00:23;;;;;;;5.13;2.10;;;24.10;39.00;;;;;;4953203;28;47087;-67
2022/09/06 09:03:02;;;;;;;3.30;1.87;;;24.20;38.80;;;;;;4956846;28;46397;-67
2022/09/06 09:05:33;;;;;;;6.97;2.20;;;24.10;39.90;;;;;;4960274;28;46457;-67
2022/09/06 09:08:05;;;;;;;9.33;2.30;;;24.30;39.90;;;;;;4966537;28;46369;-67
2022/09/06 09:10:41;;;;;;;6.10;2.23;;;24.40;39.60;;;;;;4964309;28;46427;-67
2022/09/06 09:13:14;;;;;;;3.27;1.97;;;24.30;38.30;;;;;;4956488;28;46664;-67
2022/09/06 09:15:40;;;;;;;6.60;2.00;;;24.40;39.50;;;;;;4954000;28;46435;-68
2022/09/06 09:18:06;;;;;;;3.60;1.93;;;24.40;38.90;;;;;;4953705;28;46377;-68
2022/09/06 09:20:31;;;;;;;5.30;2.27;;;24.60;38.70;;;;;;4954124;28;47343;-67
2022/09/06 09:22:57;;;;;;;6.27;2.10;;;24.80;37.40;;;;;;4954045;28;46380;-67
2022/09/06 09:25:23;;;;;;;8.87;2.20;;;24.80;38.50;;;;;;4954479;28;46466;-67
2022/09/06 09:27:56;;;;;;;6.57;1.80;;;25.00;38.60;;;;;;4955160;28;46230;-67
2022/09/06 09:30:24;;;;;;;6.43;2.17;;;25.40;37.60;;;;;;4954599;28;46402;-67
2022/09/06 09:32:49;;;;;;;5.97;2.13;;;25.00;36.20;;;;;;4953339;28;46333;-67
2022/09/06 09:35:31;;;;;;;5.73;2.00;;;25.00;36.90;;;;;;4956137;28;46439;-67
2022/09/06 09:38:02;;;;;;;6.47;1.90;;;25.10;36.50;;;;;;4956028;28;46363;-68
2022/09/06 09:40:34;;;;;;;4.93;1.80;;;25.20;36.40;;;;;;4953841;28;46413;-67
2022/09/06 09:43:19;;;;;;;6.63;2.20;;;25.50;34.30;;;;;;4953912;28;46328;-68
2022/09/06 09:45:45;;;;;;;6.57;1.80;;;25.50;34.60;;;;;;4957138;28;46383;-67
2022/09/06 09:48:28;;;;;;;6.97;2.07;;;25.60;34.40;;;;;;4955546;28;46401;-68
2022/09/06 09:50:55;;;;;;;6.40;2.10;;;25.80;33.80;;;;;;4956781;28;46419;-67
2022/09/06 09:53:22;;;;;;;7.97;2.47;;;26.20;31.50;;;;;;4956570;28;47828;-68
2022/09/06 09:55:54;;;;;;;6.57;2.23;;;26.30;32.00;;;;;;4961091;28;46305;-67
2022/09/06 09:58:34;;;;;;;6.97;2.10;;;26.50;31.40;;;;;;4954779;28;46427;-68
2022/09/06 10:01:14;;;;;;;10.90;2.10;;;26.60;30.70;;;;;;4958601;28;47281;-69
2022/09/06 10:03:40;;;;;;;7.70;1.63;;;26.70;29.50;;;;;;4958387;28;46448;-67
2022/09/06 10:06:10;;;;;;;4.93;2.00;;;26.80;30.20;;;;;;4953635;28;46381;-67
2022/09/06 10:08:40;;;;;;;7.47;2.23;;;27.00;29.90;;;;;;4957204;28;46479;-66
2022/09/06 10:11:09;;;;;;;5.57;1.83;;;27.10;29.40;;;;;;4956394;28;46396;-67
2022/09/06 10:13:36;;;;;;;5.77;1.90;;;27.40;28.30;;;;;;4955427;28;46392;-67
2022/09/06 10:16:02;;;;;;;5.00;2.27;;;27.40;29.00;;;;;;4958407;28;46298;-68
2022/09/06 10:18:31;;;;;;;6.10;2.30;;;27.50;29.00;;;;;;4955692;28;46627;-69
2022/09/06 10:21:08;;;;;;;9.30;2.30;;;27.50;28.20;;;;;;4957826;28;46366;-68
2022/09/06 10:23:55;;;;;;;10.50;2.17;;;27.50;27.70;;;;;;4956277;28;46499;-67
2022/09/06 10:26:31;;;;;;;7.50;2.47;;;27.50;27.50;;;;;;4952656;28;46341;-67
2022/09/06 10:29:08;;;;;;;6.60;2.00;;;27.60;27.40;;;;;;4953510;28;46402;-67
2022/09/06 10:32:00;;;;;;;4.47;1.87;;;27.70;27.40;;;;;;4953997;28;46510;-68
2022/09/06 10:34:45;;;;;;;8.37;2.10;;;27.40;26.40;;;;;;4952561;28;46561;-67
2022/09/06 10:37:27;;;;;;;8.93;2.30;;;27.40;27.30;;;;;;4953445;28;46400;-68
2022/09/06 10:40:09;;;;;;;16.30;2.33;;;27.50;27.30;;;;;;4951744;28;46439;-68
2022/09/06 10:42:47;;;;;;;11.37;2.50;;;27.00;26.20;;;;;;4954039;28;46309;-68
2022/09/06 10:45:32;;;;;;;7.87;1.80;;;27.00;27.10;;;;;;4951937;28;46281;-68
2022/09/06 10:48:03;;;;;;;5.13;1.90;;;27.00;27.00;;;;;;4951375;28;46425;-68
2022/09/06 10:50:50;;;;;;;7.40;2.03;;;27.10;27.10;;;;;;4952965;28;46412;-68
2022/09/06 10:53:22;;;;;;;7.07;2.07;;;27.30;26.30;;;;;;4954014;28;46346;-68
2022/09/06 10:55:56;;;;;;;6.37;1.83;;;27.30;27.20;;;;;;4955616;28;46446;-68
2022/09/06 10:58:27;;;;;;;8.63;2.30;;;27.40;27.30;;;;;;4951831;28;46285;-68
2022/09/06 11:00:54;;;;;;;4.00;1.90;;;27.60;26.70;;;;;;4952527;28;46521;-68
2022/09/06 11:03:36;;;;;;;4.57;1.93;;;27.90;25.50;;;;;;4953165;28;46381;-68
2022/09/06 11:06:07;;;;;;;11.10;2.70;;;28.00;26.10;;;;;;4949057;28;46415;-68
2022/09/06 11:08:40;;;;;;;9.80;2.40;;;28.30;25.50;;;;;;4951651;28;46404;-68
2022/09/06 11:11:12;;;;;;;7.63;1.90;;;28.30;25.60;;;;;;4954567;28;46478;-68
2022/09/06 11:13:38;;;;;;;9.47;2.20;;;28.30;24.70;;;;;;4952221;28;48715;-68
2022/09/06 11:16:12;;;;;;;9.43;2.50;;;28.30;25.10;;;;;;4954624;28;46452;-67
2022/09/06 11:19:00;;;;;;;9.20;2.40;;;28.20;25.20;;;;;;4954267;28;46351;-68
2022/09/06 11:21:28;;;;;;;9.20;2.57;;;28.40;24.60;;;;;;4954843;28;46468;-68
2022/09/06 11:24:05;;;;;;;10.43;2.90;;;28.40;23.30;;;;;;4956319;28;46634;-68
2022/09/06 11:27:03;;;;;;;9.10;1.93;;;28.30;24.10;;;;;;4954058;28;46418;-68
2022/09/06 11:29:31;;;;;;;9.60;3.00;;;28.10;24.50;;;;;;4953207;28;46842;-68
2022/09/06 11:32:24;;;;;;;7.80;2.40;;;28.10;24.50;;;;;;4951675;28;46508;-68
2022/09/06 11:34:57;;;;;;;19.53;2.70;;;27.90;23.30;;;;;;4966838;28;48361;-68
2022/09/06 11:37:35;;;;;;;12.87;2.40;;;27.80;24.30;;;;;;4952715;28;46368;-68
2022/09/06 11:40:14;;;;;;;10.47;2.23;;;27.50;24.30;;;;;;4952474;28;46501;-68
2022/09/06 11:42:59;;;;;;;15.63;2.70;;;27.60;23.60;;;;;;4957962;28;46226;-68
2022/09/06 11:45:44;;;;;;;21.53;2.60;;;27.50;24.30;;;;;;4959451;28;47095;-68
2022/09/06 11:48:22;;;;;;;17.77;3.10;;;27.40;24.20;;;;;;4958324;28;46501;-68
2022/09/06 11:51:00;;;;;;;9.87;2.77;;;27.50;24.50;;;;;;4955721;28;46534;-67
2022/09/06 11:53:53;;;;;;;14.83;3.10;;;27.60;23.40;;;;;;4958168;28;46563;-67
2022/09/06 11:56:28;;;;;;;8.73;3.00;;;27.70;24.30;;;;;;4957676;28;48174;-67
2022/09/06 11:59:21;;;;;;;17.37;3.07;;;28.20;23.30;;;;;;4954907;28;46369;-67
2022/09/06 12:02:00;;;;;;;10.60;3.07;;;28.10;23.20;;;;;;4954131;28;46203;-67
2022/09/06 12:04:57;;;;;;;7.30;2.30;;;28.10;22.10;;;;;;4955208;28;46504;-67
2022/09/06 12:07:23;;;;;;;15.03;3.17;;;28.20;22.80;;;;;;4958655;28;46305;-67
2022/09/06 12:09:49;;;;;;;7.43;2.63;;;28.50;22.60;;;;;;4956929;28;46412;-70
2022/09/06 12:12:39;;;;;;;9.00;2.30;;;28.30;21.50;;;;;;4956669;28;46488;-67
2022/09/06 12:15:25;;;;;;;11.13;2.87;;;28.30;22.40;;;;;;4959549;28;46512;-67
2022/09/06 12:17:51;;;;;;;12.77;2.10;;;28.10;22.40;;;;;;4954261;28;47052;-67
2022/09/06 12:20:47;;;;;;;8.80;2.80;;;28.00;23.00;;;;;;4956957;28;46446;-67
2022/09/06 12:23:35;;;;;;;7.00;2.43;;;28.30;21.80;;;;;;4956833;28;46416;-67
2022/09/06 12:26:02;;;;;;;10.97;3.00;;;28.30;22.40;;;;;;4958593;28;46801;-67
2022/09/06 12:28:48;;;;;;;11.50;3.03;;;28.30;22.40;;;;;;4955713;28;46309;-67
2022/09/06 12:31:35;;;;;;;13.90;3.47;;;28.40;22.30;;;;;;4957016;28;46329;-67
2022/09/06 12:34:07;;;;;;;7.80;2.50;;;28.00;21.60;;;;;;4956513;28;46444;-67
2022/09/06 12:36:33;;;;;;;14.37;2.50;;;28.00;22.60;;;;;;4958376;28;46278;-66
2022/09/06 12:39:10;;;;;;;12.70;2.80;;;28.00;22.90;;;;;;4953580;28;46460;-67
2022/09/06 12:41:40;;;;;;;15.50;2.70;;;28.20;22.80;;;;;;4954984;28;46464;-67
2022/09/06 12:44:06;;;;;;;13.53;3.03;;;28.50;21.90;;;;;;4954620;28;47299;-67
2022/09/06 12:46:34;;;;;;;14.30;2.90;;;28.60;22.40;;;;;;4959125;28;46352;-67
2022/09/06 12:49:08;;;;;;;8.20;2.30;;;28.80;22.10;;;;;;4956088;28;46435;-67
2022/09/06 12:51:36;;;;;;;12.23;3.00;;;29.10;21.50;;;;;;4956458;28;46555;-66
2022/09/06 12:54:18;;;;;;;10.33;2.77;;;29.40;19.40;;;;;;4956336;28;46349;-67
2022/09/06 12:56:43;;;;;;;13.47;3.13;;;29.30;20.50;;;;;;4957058;28;46411;-67
2022/09/06 12:59:15;;;;;;;11.37;2.60;;;29.00;20.00;;;;;;4953187;28;46927;-67
2022/09/06 13:01:49;;;;;;;12.77;2.87;;;28.70;20.70;;;;;;4953789;28;46412;-67